KAPN

Alpena County Regional Airport

Airport
ICAO code
KAPN
IATA Code
APn
Summary
ICAO Region
NAM
ICAO Territory
Location

Alpena, Michigan

Serving
Alpena
Elevation
690 ft
Coordinates
45° 4' 41" N , 83° 33' 41" W
KCC
Airport CFIT
Altimeter Temperature Error Correction
Airport GND
Aircraft Ground De/Anti Icing
Airport RE
Landing on Contaminated Runways
Metar
KAPN 231154Z AUTO 23006KT 10SM CLR 14/09 A2983 RMK AO2 SLP101 T01440089 10156 20117 53001

Description

Alpena County Regional Airport is a public-use, joint civil-military (ANG) airport located 7 nm west of the central business district of Alpena, in Alpena County, Michigan.

Airport map

Aerial View

SKYbrary Partners:

Safety knowledge contributed by: